createdAt,value
2022-08-26T00:00:05.778Z,21.20
2022-08-26T00:06:55.871Z,21.00
2022-08-26T00:13:38.911Z,21.00
2022-08-26T00:20:25.501Z,20.90
2022-08-26T00:27:09.565Z,21.00
2022-08-26T00:33:52.289Z,20.90
2022-08-26T00:40:39.594Z,20.90
2022-08-26T00:47:55.369Z,20.80
2022-08-26T00:54:46.608Z,21.00
2022-08-26T01:01:29.051Z,20.90
2022-08-26T01:08:13.197Z,20.70
2022-08-26T01:14:56.206Z,20.50
2022-08-26T01:22:10.090Z,20.30
2022-08-26T01:28:56.557Z,20.30
2022-08-26T01:35:39.040Z,20.50
2022-08-26T01:42:23.890Z,20.60
2022-08-26T01:49:08.195Z,20.60
2022-08-26T01:55:55.831Z,20.60
2022-08-26T02:02:38.214Z,20.40
2022-08-26T02:09:22.029Z,20.40
2022-08-26T02:16:05.509Z,20.30
2022-08-26T02:22:50.828Z,20.30
2022-08-26T02:29:38.262Z,20.40
2022-08-26T02:36:28.529Z,20.30
2022-08-26T02:43:12.427Z,20.20
2022-08-26T02:49:54.777Z,20.10
2022-08-26T02:56:37.157Z,20.10
2022-08-26T03:03:19.499Z,20.10
2022-08-26T03:10:08.327Z,20.00
2022-08-26T03:16:53.894Z,20.00
2022-08-26T03:23:37.272Z,20.00
2022-08-26T03:30:38.987Z,20.00
2022-08-26T03:37:27.618Z,20.00
2022-08-26T03:44:10.012Z,19.90
2022-08-26T03:50:52.401Z,19.70
2022-08-26T03:57:36.441Z,19.60
2022-08-26T04:04:18.878Z,19.40
2022-08-26T04:11:06.546Z,19.40
2022-08-26T04:17:49.114Z,19.40
2022-08-26T04:24:32.996Z,19.30
2022-08-26T04:31:19.899Z,19.30
2022-08-26T04:38:03.483Z,19.40
2022-08-26T04:44:48.355Z,19.40
2022-08-26T04:51:30.724Z,19.50
2022-08-26T04:58:21.635Z,19.70
2022-08-26T05:05:06.956Z,19.90
2022-08-26T05:11:52.167Z,20.30
2022-08-26T05:18:34.890Z,20.60
2022-08-26T05:25:18.443Z,20.60
2022-08-26T05:32:01.583Z,21.00
2022-08-26T05:38:45.551Z,21.40
2022-08-26T05:45:28.190Z,21.10
2022-08-26T05:52:10.755Z,21.20
2022-08-26T05:58:54.143Z,21.00
2022-08-26T06:05:40.524Z,21.20
2022-08-26T06:12:22.934Z,22.50
2022-08-26T06:19:10.655Z,23.20
2022-08-26T06:25:53.613Z,23.20
2022-08-26T06:32:36.199Z,23.00
2022-08-26T06:39:18.982Z,23.40
2022-08-26T06:46:09.226Z,23.90
2022-08-26T06:52:52.658Z,25.20
2022-08-26T06:59:36.809Z,27.40
2022-08-26T07:06:19.936Z,28.70
2022-08-26T07:13:02.274Z,27.60
2022-08-26T07:19:46.454Z,27.40
2022-08-26T07:26:30.804Z,29.30
2022-08-26T07:33:13.158Z,31.60
2022-08-26T07:39:55.575Z,32.60
2022-08-26T07:46:38.095Z,33.20
2022-08-26T07:53:22.154Z,32.40
2022-08-26T08:00:09.598Z,32.30
2022-08-26T08:06:55.331Z,31.30
2022-08-26T08:13:38.354Z,30.50
2022-08-26T08:20:23.014Z,29.70
2022-08-26T08:27:05.662Z,29.10
2022-08-26T08:33:48.126Z,28.70
2022-08-26T08:40:31.302Z,28.10
2022-08-26T08:47:29.125Z,27.80
2022-08-26T08:54:11.894Z,27.90
2022-08-26T09:01:09.847Z,28.00
2022-08-26T09:08:14.696Z,28.40
2022-08-26T09:15:24.632Z,30.00
2022-08-26T09:22:10.115Z,30.30
2022-08-26T09:28:59.557Z,31.70
2022-08-26T09:35:48.690Z,33.50
2022-08-26T09:42:32.427Z,35.00
2022-08-26T09:49:28.618Z,36.10
2022-08-26T09:56:27.807Z,37.20
2022-08-26T10:09:59.606Z,38.90
2022-08-26T10:17:19.481Z,38.50
2022-08-26T10:24:04.501Z,39.40
2022-08-26T10:30:56.116Z,39.20
2022-08-26T10:37:55.152Z,39.50
2022-08-26T10:44:43.824Z,40.20
2022-08-26T10:51:35.530Z,40.40
2022-08-26T10:58:36.729Z,38.70
2022-08-26T11:05:23.391Z,36.20
2022-08-26T11:12:09.956Z,35.20
2022-08-26T11:18:55.914Z,33.80
2022-08-26T11:25:57.117Z,32.40
2022-08-26T11:32:39.698Z,32.40
2022-08-26T11:39:30.976Z,32.30
2022-08-26T11:46:25.095Z,31.70
2022-08-26T11:53:07.748Z,32.70
2022-08-26T11:59:50.276Z,32.30
2022-08-26T12:06:46.439Z,32.20
2022-08-26T12:13:28.793Z,32.00
2022-08-26T12:20:48.377Z,32.50
2022-08-26T12:27:36.693Z,31.60
2022-08-26T12:34:19.599Z,31.10
2022-08-26T12:41:03.499Z,31.20
2022-08-26T12:47:46.221Z,31.00
2022-08-26T12:54:48.670Z,31.30
2022-08-26T13:08:43.356Z,32.10
2022-08-26T13:15:25.819Z,32.00
2022-08-26T13:22:12.653Z,32.20
2022-08-26T13:29:02.165Z,32.20
2022-08-26T13:35:45.207Z,32.50
2022-08-26T13:42:27.608Z,32.30
2022-08-26T13:49:11.265Z,32.30
2022-08-26T13:55:53.650Z,31.70
2022-08-26T14:02:36.068Z,31.60
2022-08-26T14:09:18.399Z,31.70
2022-08-26T14:16:02.706Z,31.30
2022-08-26T14:23:03.519Z,31.50
2022-08-26T14:29:46.226Z,31.50
2022-08-26T14:36:28.611Z,30.80
2022-08-26T14:43:15.102Z,30.50
2022-08-26T14:49:58.003Z,30.30
2022-08-26T14:56:46.822Z,30.40
2022-08-26T15:03:29.162Z,30.50
2022-08-26T15:10:13.849Z,30.40
2022-08-26T15:16:57.186Z,30.10
2022-08-26T15:23:39.576Z,29.80
2022-08-26T15:30:22.290Z,29.90
2022-08-26T15:37:07.051Z,29.90
2022-08-26T15:43:50.211Z,29.70
2022-08-26T15:50:32.812Z,29.80
2022-08-26T15:57:16.516Z,29.40
2022-08-26T16:04:01.625Z,28.80
2022-08-26T16:10:50.048Z,28.00
2022-08-26T16:17:33.151Z,26.90
2022-08-26T16:24:15.536Z,26.20
2022-08-26T16:30:57.927Z,25.40
2022-08-26T16:37:40.809Z,25.00
2022-08-26T16:44:23.217Z,24.30
2022-08-26T16:51:16.172Z,23.90
2022-08-26T16:57:58.578Z,23.70
2022-08-26T17:04:41.193Z,23.50
2022-08-26T17:11:28.488Z,23.10
2022-08-26T17:18:11.172Z,22.90
2022-08-26T17:24:53.574Z,22.70
2022-08-26T17:31:36.008Z,22.60
2022-08-26T17:38:18.397Z,22.90
2022-08-26T17:45:00.862Z,23.00
2022-08-26T17:51:43.285Z,22.80
2022-08-26T17:58:25.683Z,22.40
2022-08-26T18:05:11.425Z,21.80
2022-08-26T18:11:53.791Z,21.60
2022-08-26T18:18:36.802Z,21.40
2022-08-26T18:25:19.474Z,21.10
2022-08-26T18:32:01.910Z,21.30
2022-08-26T18:38:45.057Z,21.50
2022-08-26T18:45:28.744Z,21.30
2022-08-26T18:52:11.143Z,21.40
2022-08-26T18:58:53.914Z,21.60
2022-08-26T19:05:37.889Z,21.50
2022-08-26T19:12:20.352Z,21.50
2022-08-26T19:19:03.649Z,21.60
2022-08-26T19:25:49.865Z,21.70
2022-08-26T19:32:32.218Z,21.70
2022-08-26T19:39:14.615Z,21.60
2022-08-26T19:45:57.376Z,21.60
2022-08-26T19:52:41.044Z,21.40
2022-08-26T19:59:23.459Z,21.10
2022-08-26T20:06:07.541Z,20.90
2022-08-26T20:12:51.827Z,20.90
2022-08-26T20:19:53.187Z,21.00
2022-08-26T20:26:37.859Z,21.10
2022-08-26T20:33:20.700Z,20.90
2022-08-26T20:40:04.960Z,20.90
2022-08-26T20:46:47.809Z,20.80
2022-08-26T20:53:31.275Z,20.70
2022-08-26T21:00:16.110Z,20.80
2022-08-26T21:07:00.009Z,20.60
2022-08-26T21:14:03.863Z,20.50
2022-08-26T21:20:45.544Z,20.60
2022-08-26T21:27:28.084Z,20.60
2022-08-26T21:34:10.453Z,20.60
2022-08-26T21:41:01.214Z,20.60
2022-08-26T21:47:43.864Z,20.50
2022-08-26T21:54:26.242Z,20.50
2022-08-26T22:01:11.363Z,20.60
2022-08-26T22:07:54.444Z,20.40
2022-08-26T22:14:37.206Z,20.40
2022-08-26T22:21:26.769Z,20.40
2022-08-26T22:28:09.285Z,20.40
2022-08-26T22:34:51.756Z,20.40
2022-08-26T22:41:35.260Z,20.40
2022-08-26T22:48:20.054Z,20.40
2022-08-26T22:55:03.857Z,20.50
2022-08-26T23:01:47.251Z,20.40
2022-08-26T23:08:29.678Z,20.60
2022-08-26T23:15:12.292Z,20.70
2022-08-26T23:21:54.849Z,20.80
2022-08-26T23:28:38.277Z,20.80
2022-08-26T23:35:21.565Z,20.90
2022-08-26T23:42:04.914Z,20.80
2022-08-26T23:48:47.829Z,20.70
2022-08-26T23:55:33.443Z,20.70
